Louise S — WDE9035 — position and weather

sailwx.info

Track history (hours):
 
Tides and Currents Weather Stations Pressure Air Temp Water Temp Dewpoint Dewpoint Depression Visibility Wind Speed Wind Dir Waves Ship Positions

Louise S

Owner: CAMPBELL TRANSPORTATION COMPANY, CHARLEROI, PA. More information available from US FCC via Universal Licensing System and Coast Guard Vessel Documentation Center.

Last reported at 2015-Jul-23 16:30 UTC. Time now 2015-Aug-05 06:25 UTC.
Position N 39°08' W 084°46'.
Warning: this ship's position is 12 days out of date.

Length 45 m.

Type: Tow > 200 m length. MMSI: 367412620.

Date/timePositionNaut miles runAvg speedWind from/ knotsBaromVisibWave heightAir tempDewpointWater temp
2015-Jul-23 16:30N 39°08' W 084°46'5 4.9
2015-Jul-23 15:32N 39°06' W 084°41'0 0.1
2015-Jul-23 14:32N 39°06' W 084°41'0 0.0
2015-Jul-23 13:33N 39°06' W 084°41'0 0.0
2015-Jul-23 12:31N 39°06' W 084°41'0 0.0
2015-Jul-23 11:32N 39°06' W 084°41'0 0.0
2015-Jul-23 10:32N 39°06' W 084°41'0 0.0
2015-Jul-23 09:32N 39°06' W 084°41'4 3.9
2015-Jul-23 08:31N 39°04' W 084°36'3 3.2
2015-Jul-23 07:32N 39°06' W 084°33'0 0.0
2015-Jul-23 06:32N 39°06' W 084°33'0 0.1
2015-Jul-23 05:32N 39°06' W 084°33'5 5.2
2015-Jul-23 04:33N 39°05' W 084°26'6 6.4
2015-Jul-23 03:33N 39°01' W 084°20'7 7.2
2015-Jul-23 02:33N 38°55' W 084°15'8 7.7
2015-Jul-23 01:33N 38°48' W 084°11'  
2015-Jul-16 14:32N 38°24' W 082°34'77 1.6
2015-Jul-14 15:29N 38°47' W 084°09'2 2.1
2015-Jul-14 14:18N 38°48' W 084°12'2 1.9
2015-Jul-14 13:30N 38°49' W 084°13'3 2.6
2015-Jul-14 12:32N 38°51' W 084°14'4 3.6
2015-Jul-14 11:33N 38°55' W 084°15'4 3.8
2015-Jul-14 10:33N 38°58' W 084°18'4 3.8
2015-Jul-14 09:32N 39°01' W 084°19'4 3.7
2015-Jul-14 08:32N 39°03' W 084°24'3 3.4
2015-Jul-14 07:32N 39°06' W 084°26'3 2.7
2015-Jul-14 06:33N 39°07' W 084°29'3 2.5
2015-Jul-14 05:33N 39°06' W 084°32'2 2.3
2015-Jul-14 04:33N 39°05' W 084°35'3 3.2
2015-Jul-14 03:28N 39°05' W 084°39'0 0.0
2015-Jul-14 02:33N 39°05' W 084°39'0 0.1
2015-Jul-14 01:33N 39°05' W 084°39'0 0.0
2015-Jul-14 00:33N 39°05' W 084°39'0 0.1
2015-Jul-13 23:31N 39°05' W 084°39'0 0.0
2015-Jul-13 22:32N 39°05' W 084°39'5 1.0
2015-Jul-13 17:30N 39°09' W 084°44'  
Track history (hours):
 
Tides and Currents Weather Stations Pressure Air Temp Water Temp Dewpoint Dewpoint Depression Visibility Wind Speed Wind Dir Waves Ship Positions

Louise S

Owner: CAMPBELL TRANSPORTATION COMPANY, CHARLEROI, PA. More information available from US FCC via Universal Licensing System and Coast Guard Vessel Documentation Center.

Last reported at 2015-Jul-23 16:30 UTC. Time now 2015-Aug-05 06:25 UTC.
Position N 39°08' W 084°46'.
Warning: this ship's position is 12 days out of date.

Length 45 m.

Type: Tow > 200 m length. MMSI: 367412620.

Date/timePositionNaut miles runAvg speedWind from/ knotsBaromVisibWave heightAir tempDewpointWater temp
2015-Jul-23 16:30N 39°08' W 084°46'5 4.9
2015-Jul-23 15:32N 39°06' W 084°41'0 0.1
2015-Jul-23 14:32N 39°06' W 084°41'0 0.0
2015-Jul-23 13:33N 39°06' W 084°41'0 0.0
2015-Jul-23 12:31N 39°06' W 084°41'0 0.0
2015-Jul-23 11:32N 39°06' W 084°41'0 0.0
2015-Jul-23 10:32N 39°06' W 084°41'0 0.0
2015-Jul-23 09:32N 39°06' W 084°41'4 3.9
2015-Jul-23 08:31N 39°04' W 084°36'3 3.2
2015-Jul-23 07:32N 39°06' W 084°33'0 0.0
2015-Jul-23 06:32N 39°06' W 084°33'0 0.1
2015-Jul-23 05:32N 39°06' W 084°33'5 5.2
2015-Jul-23 04:33N 39°05' W 084°26'6 6.4
2015-Jul-23 03:33N 39°01' W 084°20'7 7.2
2015-Jul-23 02:33N 38°55' W 084°15'8 7.7
2015-Jul-23 01:33N 38°48' W 084°11'  
2015-Jul-16 14:32N 38°24' W 082°34'77 1.6
2015-Jul-14 15:29N 38°47' W 084°09'2 2.1
2015-Jul-14 14:18N 38°48' W 084°12'2 1.9
2015-Jul-14 13:30N 38°49' W 084°13'3 2.6
2015-Jul-14 12:32N 38°51' W 084°14'4 3.6
2015-Jul-14 11:33N 38°55' W 084°15'4 3.8
2015-Jul-14 10:33N 38°58' W 084°18'4 3.8
2015-Jul-14 09:32N 39°01' W 084°19'4 3.7
2015-Jul-14 08:32N 39°03' W 084°24'3 3.4
2015-Jul-14 07:32N 39°06' W 084°26'3 2.7
2015-Jul-14 06:33N 39°07' W 084°29'3 2.5
2015-Jul-14 05:33N 39°06' W 084°32'2 2.3
2015-Jul-14 04:33N 39°05' W 084°35'3 3.2
2015-Jul-14 03:28N 39°05' W 084°39'0 0.0
2015-Jul-14 02:33N 39°05' W 084°39'0 0.1
2015-Jul-14 01:33N 39°05' W 084°39'0 0.0
2015-Jul-14 00:33N 39°05' W 084°39'0 0.1
2015-Jul-13 23:31N 39°05' W 084°39'0 0.0
2015-Jul-13 22:32N 39°05' W 084°39'5 1.0
2015-Jul-13 17:30N 39°09' W 084°44'  

Dump ship's entire track history